Terminal Aerodrome Forecast
Issued by NWS

Home | Current Version | Previous Version | Text Only | Print | Product List | Glossary On
Versions: 1 2 3 4 5 6 7 8 9 10 11 12
424
FTUS45 KABQ 022341
TAFGUP
TAF
KGUP 022341Z 0300/0324 03008KT P6SM SCT070 BKN120
     FM030600 04007KT P6SM SCT040 BKN060
      TEMPO 0310/0314 SCT020 BKN040
     FM031530 VRB05KT P6SM SCT030
     FM031930 02009KT P6SM FEW080=

USA.gov is the U.S. government's official web portal to all federal, state and local government web resources and services.